Terminal Aerodrome Forecast
Issued by NWS Upton, NY

Current Version | Previous Version | Text Only | Print | Product List | Glossary On
Versions: 1 2 3 4 5 6 7 8 9 10 11 12 13 14 15 16 17 18 19 20 21 22 23 24 25 26 27 28 29
000
FTUS41 KOKX 252000 AAA
TAFEWR
TAF AMD
KEWR 252044Z 2521/2624 26009KT P6SM SCT060 BKN200
     FM260200 32006KT P6SM BKN150
     FM260600 36007KT P6SM SCT070 OVC120
     FM260900 36011KT 6SM -RA OVC025
     FM261100 01014KT 4SM -RA OVC015
     FM261500 02013KT 4SM -SNRA OVC009
     FM261700 01014G19KT 2SM -SN OVC007
     FM261900 01015G23KT 1SM -SN OVC004=

USA.gov is the U.S. government's official web portal to all federal, state and local government web resources and services.